Time;durP1;ratioP1;P1;durP2;ratioP2;P2;SDS_P1;SDS_P2;PMS_P1;PMS_P2;Temp;Humidity;BMP_temperature;BMP_pressure;BME280_temperature;BME280_humidity;BME280_pressure;Samples;Min_cycle;Max_cycle;Signal;HPM_P1;HPM_P2
2022/03/23 00:02:26;;;;;;;10.52;1.88;;;20.00;77.30;;;;;;5053481;27;95525;-62
2022/03/23 00:04:57;;;;;;;3.10;1.20;;;20.00;77.30;;;;;;5055132;27;96692;-63
2022/03/23 00:07:28;;;;;;;1.10;0.75;;;20.10;77.50;;;;;;5057456;27;96511;-60
2022/03/23 00:10:00;;;;;;;;;;;20.20;77.20;;;;;;5052462;27;95961;-62
2022/03/23 00:12:30;;;;;;;2.55;1.00;;;20.30;77.10;;;;;;5061756;27;95737;-60
2022/03/23 00:15:01;;;;;;;;;;;20.40;77.40;;;;;;5048152;27;95897;-60
2022/03/23 00:17:32;;;;;;;1.33;0.90;;;20.50;76.70;;;;;;5046724;27;99790;-61
2022/03/23 00:20:04;;;;;;;1.23;0.90;;;20.60;76.70;;;;;;5040672;27;95912;-62
2022/03/23 00:22:34;;;;;;;2.17;0.75;;;20.70;76.70;;;;;;5056147;27;95843;-59
2022/03/23 00:25:04;;;;;;;0.80;0.60;;;20.80;76.60;;;;;;5055893;27;95903;-63
2022/03/23 00:27:36;;;;;;;5.40;1.10;;;20.80;76.50;;;;;;5052534;27;95794;-59
2022/03/23 00:30:10;;;;;;;8.32;1.67;;;20.80;75.60;;;;;;5040167;27;95786;-61
2022/03/23 00:32:40;;;;;;;11.00;1.42;;;20.60;75.60;;;;;;5044886;27;95580;-61
2022/03/23 00:35:12;;;;;;;11.38;1.23;;;20.50;75.90;;;;;;5049902;27;95743;-62
2022/03/23 00:37:43;;;;;;;3.08;1.42;;;20.60;72.10;;;;;;5037018;27;96196;-59
2022/03/23 00:40:15;;;;;;;2.65;1.00;;;20.70;76.00;;;;;;5062167;27;97693;-64
2022/03/23 00:42:48;;;;;;;5.28;0.93;;;20.70;75.80;;;;;;5030527;27;96933;-60
2022/03/23 00:45:18;;;;;;;;;;;20.80;75.70;;;;;;5047432;27;98053;-62
2022/03/23 00:47:50;;;;;;;;;;;20.90;75.60;;;;;;5035809;27;95949;-62
2022/03/23 00:50:19;;;;;;;1.77;0.82;;;20.90;75.50;;;;;;5054622;27;96508;-63
2022/03/23 00:52:50;;;;;;;4.22;1.38;;;20.90;75.30;;;;;;5059766;27;95996;-61
2022/03/23 00:55:22;;;;;;;1.92;1.02;;;21.00;74.70;;;;;;5065151;27;95724;-56
2022/03/23 00:57:52;;;;;;;4.18;1.27;;;21.00;75.20;;;;;;5061224;27;96543;-61
2022/03/23 01:00:23;;;;;;;3.15;0.93;;;21.10;75.30;;;;;;5053460;27;96288;-65
2022/03/23 01:02:54;;;;;;;2.70;1.33;;;21.10;75.10;;;;;;5063201;27;95947;-62
2022/03/23 01:05:26;;;;;;;5.75;1.65;;;21.20;75.20;;;;;;5065267;27;95739;-63
2022/03/23 01:07:57;;;;;;;2.75;1.42;;;21.10;74.50;;;;;;5062696;27;96444;-64
2022/03/23 01:10:30;;;;;;;4.85;1.75;;;21.00;75.10;;;;;;5049780;27;96417;-63
2022/03/23 01:13:05;;;;;;;1.35;1.25;;;21.10;75.40;;;;;;5043483;27;95962;-63
2022/03/23 01:15:36;;;;;;;3.42;1.38;;;21.20;75.30;;;;;;5020333;27;95968;-62
2022/03/23 01:18:06;;;;;;;;;;;21.20;75.30;;;;;;5036673;27;96158;-65
2022/03/23 01:20:36;;;;;;;3.92;1.55;;;21.30;75.20;;;;;;5058657;27;97787;-65
2022/03/23 01:23:06;;;;;;;3.17;1.13;;;21.30;75.10;;;;;;5050969;27;95916;-63
2022/03/23 01:25:36;;;;;;;1.63;0.90;;;21.50;75.10;;;;;;5038435;27;95797;-63
2022/03/23 01:28:09;;;;;;;1.90;1.38;;;21.60;75.10;;;;;;5039100;27;96650;-63
2022/03/23 01:30:41;;;;;;;1.60;1.30;;;21.60;75.20;;;;;;5048872;27;95960;-63
2022/03/23 01:33:11;;;;;;;1.85;1.05;;;21.70;75.00;;;;;;5059559;27;96725;-63
2022/03/23 01:35:41;;;;;;;2.35;1.17;;;21.80;75.00;;;;;;5029320;27;96282;-62
2022/03/23 01:38:11;;;;;;;2.75;1.27;;;21.90;74.90;;;;;;5055410;27;95845;-61
2022/03/23 01:40:43;;;;;;;1.65;1.40;;;22.00;74.80;;;;;;5057627;27;95839;-63
2022/03/23 01:43:18;;;;;;;0.85;0.82;;;22.00;74.80;;;;;;5025873;27;95527;-62
2022/03/23 01:45:49;;;;;;;3.85;1.42;;;22.00;74.60;;;;;;5035882;27;96271;-62
2022/03/23 01:48:22;;;;;;;2.45;1.15;;;22.10;74.70;;;;;;5059811;27;95863;-64
2022/03/23 01:50:55;;;;;;;2.25;1.08;;;22.10;74.60;;;;;;5058845;27;95671;-63
2022/03/23 01:53:26;;;;;;;2.42;1.10;;;22.20;74.60;;;;;;5060211;27;96368;-62
2022/03/23 01:56:00;;;;;;;1.60;1.25;;;22.20;71.10;;;;;;5039924;27;96473;-61
2022/03/23 01:58:31;;;;;;;1.88;1.10;;;22.20;74.40;;;;;;5040883;27;98117;-62
2022/03/23 02:01:11;;;;;;;2.05;1.67;;;22.20;74.40;;;;;;5023591;27;96860;-62
2022/03/23 02:03:45;;;;;;;2.90;1.20;;;22.30;74.30;;;;;;5055052;27;95736;-62
2022/03/23 02:06:16;;;;;;;3.22;1.13;;;22.40;74.40;;;;;;5059012;27;95674;-63
2022/03/23 02:08:47;;;;;;;4.78;1.83;;;22.50;74.40;;;;;;5039930;27;98000;-64
2022/03/23 02:11:17;;;;;;;5.43;1.90;;;22.40;71.50;;;;;;5022478;27;97798;-61
2022/03/23 02:13:48;;;;;;;2.83;1.52;;;22.20;71.80;;;;;;5038024;27;96001;-65
2022/03/23 02:16:24;;;;;;;4.65;1.60;;;22.20;69.30;;;;;;5020693;27;96015;-59
2022/03/23 02:18:55;;;;;;;4.82;2.40;;;22.10;72.50;;;;;;5037691;27;98430;-61
2022/03/23 02:21:29;;;;;;;2.42;1.70;;;22.10;72.50;;;;;;5036300;27;97491;-62
2022/03/23 02:23:58;;;;;;;7.40;1.85;;;22.20;72.40;;;;;;5060227;27;95812;-65
2022/03/23 02:26:30;;;;;;;3.58;1.50;;;22.30;72.10;;;;;;5062699;27;95955;-63
2022/03/23 02:29:01;;;;;;;4.60;2.15;;;22.40;71.90;;;;;;5062549;27;96532;-63
2022/03/23 02:31:31;;;;;;;3.58;2.13;;;22.50;71.60;;;;;;5054804;27;95485;-63
2022/03/23 02:34:03;;;;;;;3.90;1.63;;;22.50;71.60;;;;;;5062505;27;96393;-62
2022/03/23 02:36:33;;;;;;;2.15;1.55;;;22.50;71.30;;;;;;5043894;27;95902;-62
2022/03/23 02:39:04;;;;;;;3.35;1.83;;;22.50;71.20;;;;;;5060187;27;96567;-64
2022/03/23 02:41:35;;;;;;;2.20;1.52;;;22.50;71.20;;;;;;5060314;27;95880;-64
2022/03/23 02:44:08;;;;;;;1.73;1.30;;;22.50;71.10;;;;;;5060908;27;95264;-64
2022/03/23 02:46:39;;;;;;;3.55;1.33;;;22.50;71.10;;;;;;5049037;27;95891;-65
2022/03/23 02:49:09;;;;;;;3.83;1.67;;;22.40;70.80;;;;;;5050921;27;95751;-65
2022/03/23 02:51:39;;;;;;;2.00;1.13;;;22.50;70.70;;;;;;5057661;27;96072;-66
2022/03/23 03:03:09;;;;;;;3.25;1.90;;;22.30;70.80;;;;;;5035635;27;102078;-67
2022/03/23 03:05:41;;;;;;;4.00;1.10;;;22.40;71.20;;;;;;5058929;27;96096;-66
2022/03/23 03:11:04;;;;;;;2.80;1.10;;;22.60;71.30;;;;;;5053803;27;97255;-65
2022/03/23 03:13:41;;;;;;;2.90;1.25;;;22.70;71.30;;;;;;5055141;27;95896;-64
2022/03/23 03:16:11;;;;;;;2.38;1.48;;;22.70;71.20;;;;;;5032763;27;97709;-63
2022/03/23 03:18:44;;;;;;;2.67;1.20;;;22.80;71.20;;;;;;5027277;27;95916;-63
2022/03/23 03:21:14;;;;;;;4.80;1.23;;;22.90;71.30;;;;;;5039579;27;95910;-71
2022/03/23 03:23:45;;;;;;;5.13;1.37;;;22.70;64.30;;;;;;5039814;27;95801;-71
2022/03/23 03:26:19;;;;;;;4.40;1.33;;;22.20;65.90;;;;;;5040944;27;97790;-70
2022/03/23 03:28:51;;;;;;;5.25;2.13;;;21.80;67.50;;;;;;5019704;27;95802;-72
2022/03/23 03:31:22;;;;;;;5.55;1.70;;;21.50;67.90;;;;;;5038565;27;95720;-79
2022/03/23 03:33:52;;;;;;;6.20;1.33;;;21.50;68.40;;;;;;5021782;27;95994;-68
2022/03/23 03:36:22;;;;;;;9.20;1.98;;;21.60;69.30;;;;;;5025139;27;96534;-71
2022/03/23 03:38:53;;;;;;;5.85;1.90;;;21.60;67.00;;;;;;5041441;27;95713;-68
2022/03/23 03:41:24;;;;;;;6.38;1.67;;;21.50;68.10;;;;;;5038403;27;96520;-64
2022/03/23 03:43:56;;;;;;;5.30;1.50;;;21.60;67.90;;;;;;5040244;27;96016;-63
2022/03/23 03:46:27;;;;;;;7.22;1.80;;;21.70;66.70;;;;;;5013177;27;98633;-66
2022/03/23 03:48:57;;;;;;;3.85;1.50;;;21.70;64.90;;;;;;5050033;27;95939;-68
2022/03/23 03:51:27;;;;;;;5.85;1.60;;;21.00;61.70;;;;;;5052557;27;96341;-68
2022/03/23 03:53:59;;;;;;;5.30;1.63;;;20.70;65.50;;;;;;5051393;27;95789;-68
2022/03/23 03:56:29;;;;;;;5.78;1.85;;;20.50;66.70;;;;;;5050199;27;95289;-66
2022/03/23 03:59:00;;;;;;;6.03;1.77;;;20.20;67.20;;;;;;5053178;27;95734;-68
2022/03/23 04:01:32;;;;;;;4.50;1.35;;;20.20;67.40;;;;;;5017729;27;99183;-67
2022/03/23 04:04:02;;;;;;;5.60;1.58;;;20.20;67.70;;;;;;5025150;27;96310;-67
2022/03/23 04:06:33;;;;;;;4.47;1.33;;;20.30;68.30;;;;;;5035697;27;95702;-62
2022/03/23 04:09:05;;;;;;;3.58;1.17;;;20.40;68.90;;;;;;5034334;27;95868;-66
2022/03/23 04:11:36;;;;;;;2.42;1.02;;;20.60;67.00;;;;;;5030418;27;96409;-67
2022/03/23 04:14:08;;;;;;;2.58;0.98;;;20.60;67.40;;;;;;5036234;27;95528;-67
2022/03/23 04:16:39;;;;;;;4.50;1.00;;;20.70;68.40;;;;;;5028799;27;98572;-67
2022/03/23 04:19:10;;;;;;;3.28;1.15;;;20.80;69.40;;;;;;5008881;27;95924;-68
2022/03/23 04:21:40;;;;;;;5.80;1.45;;;20.90;68.80;;;;;;5030039;27;95766;-68
2022/03/23 04:24:10;;;;;;;4.55;1.38;;;21.00;66.30;;;;;;5038337;27;95941;-60
2022/03/23 04:26:46;;;;;;;4.00;1.15;;;21.20;66.50;;;;;;5040504;27;95716;-61
2022/03/23 04:29:16;;;;;;;2.72;1.00;;;21.30;65.10;;;;;;5040599;27;96259;-67
2022/03/23 04:31:46;;;;;;;3.33;1.00;;;21.40;65.50;;;;;;5036670;27;95934;-67
2022/03/23 04:34:16;;;;;;;2.70;1.00;;;21.40;65.30;;;;;;5054945;27;96320;-67
2022/03/23 04:36:46;;;;;;;1.70;1.02;;;21.60;65.10;;;;;;5055593;27;95761;-61
2022/03/23 04:39:16;;;;;;;2.67;0.80;;;21.70;65.60;;;;;;5057714;27;98515;-68
2022/03/23 04:41:48;;;;;;;3.53;1.58;;;22.00;65.30;;;;;;5058379;27;95989;-61
2022/03/23 04:44:21;;;;;;;4.53;1.15;;;22.10;61.40;;;;;;5056767;27;96258;-57
2022/03/23 04:46:52;;;;;;;3.10;1.10;;;22.00;62.10;;;;;;5050158;27;97577;-66
2022/03/23 04:49:22;;;;;;;3.03;0.98;;;22.20;62.90;;;;;;5057870;27;96059;-66
2022/03/23 04:51:53;;;;;;;4.00;1.17;;;22.00;60.60;;;;;;5054218;27;96553;-67
2022/03/23 04:54:25;;;;;;;7.30;1.25;;;22.00;64.00;;;;;;5054307;27;96254;-61
2022/03/23 04:56:55;;;;;;;;;;;22.20;63.40;;;;;;5056102;27;95771;-62
2022/03/23 04:59:27;;;;;;;2.93;1.03;;;22.20;60.60;;;;;;5055677;27;95850;-66
2022/03/23 05:01:57;;;;;;;4.07;1.85;;;21.90;62.10;;;;;;5046596;27;95916;-62
2022/03/23 05:04:29;;;;;;;3.28;1.20;;;22.00;62.10;;;;;;5054540;27;97039;-69
2022/03/23 05:06:59;;;;;;;5.28;1.23;;;21.70;61.20;;;;;;5040017;27;96117;-68
2022/03/23 05:09:31;;;;;;;7.07;1.45;;;21.60;65.10;;;;;;5054286;27;95810;-62
2022/03/23 05:12:01;;;;;;;6.18;1.38;;;21.50;62.00;;;;;;5047696;27;95833;-61
2022/03/23 05:14:33;;;;;;;3.83;1.20;;;21.50;64.20;;;;;;5051124;27;95872;-74
2022/03/23 05:17:04;;;;;;;9.68;1.88;;;21.30;64.40;;;;;;5029173;27;96317;-64
2022/03/23 05:19:36;;;;;;;9.40;1.67;;;21.30;63.70;;;;;;5031926;27;95933;-59
2022/03/23 05:22:06;;;;;;;5.18;1.42;;;20.90;63.50;;;;;;5022434;27;96199;-66
2022/03/23 05:24:37;;;;;;;4.15;1.15;;;20.70;63.10;;;;;;5038276;27;96081;-59
2022/03/23 05:27:09;;;;;;;6.28;1.60;;;20.50;67.30;;;;;;5030009;27;95783;-67
2022/03/23 05:29:40;;;;;;;5.40;1.55;;;20.40;65.20;;;;;;5037877;27;95279;-70
2022/03/23 05:32:16;;;;;;;4.38;1.35;;;20.30;64.40;;;;;;5026894;27;96399;-70
2022/03/23 05:34:48;;;;;;;5.82;1.48;;;20.10;65.60;;;;;;5038950;27;95271;-62
2022/03/23 05:37:22;;;;;;;5.55;1.40;;;20.00;65.50;;;;;;5034639;27;95835;-69
2022/03/23 05:39:54;;;;;;;7.95;1.73;;;19.90;68.40;;;;;;5035935;27;96045;-68
2022/03/23 05:42:26;;;;;;;7.65;1.42;;;19.90;66.90;;;;;;5033418;27;96269;-71
2022/03/23 05:44:57;;;;;;;5.80;1.35;;;19.90;68.40;;;;;;5036529;27;95832;-66
2022/03/23 05:47:28;;;;;;;4.30;1.27;;;20.00;68.60;;;;;;5031150;27;97345;-68
2022/03/23 05:49:59;;;;;;;6.10;1.20;;;20.00;67.00;;;;;;5041027;27;96201;-70
2022/03/23 05:52:33;;;;;;;3.00;1.17;;;19.90;64.10;;;;;;5040703;27;98848;-66
2022/03/23 05:55:07;;;;;;;4.32;1.40;;;20.00;65.20;;;;;;5043406;27;95939;-68
2022/03/23 05:57:39;;;;;;;2.67;1.30;;;20.00;65.40;;;;;;5031256;27;95828;-67
2022/03/23 06:00:11;;;;;;;8.65;1.95;;;20.00;65.60;;;;;;5039474;27;96464;-63
2022/03/23 06:02:41;;;;;;;4.93;1.63;;;19.90;64.60;;;;;;5060980;27;102373;-65
2022/03/23 06:05:12;;;;;;;;;;;19.80;65.00;;;;;;5059747;27;95850;-69
2022/03/23 06:07:43;;;;;;;6.38;1.88;;;19.80;67.90;;;;;;5062711;27;95326;-69
2022/03/23 06:10:15;;;;;;;6.15;1.65;;;20.00;66.70;;;;;;5046582;27;95706;-63
2022/03/23 06:12:48;;;;;;;6.00;2.33;;;19.80;66.00;;;;;;5067299;27;96149;-67
2022/03/23 06:15:18;;;;;;;;;;;19.60;69.50;;;;;;5051680;27;95901;-69
2022/03/23 06:17:53;;;;;;;7.30;1.48;;;19.70;66.70;;;;;;5018620;27;96520;-68
2022/03/23 06:20:30;;;;;;;6.93;1.23;;;19.80;65.70;;;;;;5038572;27;95850;-66
2022/03/23 06:23:00;;;;;;;8.30;1.52;;;19.60;65.10;;;;;;5040753;27;96561;-63
2022/03/23 06:25:31;;;;;;;8.23;1.67;;;19.50;67.20;;;;;;5041214;27;95529;-67
2022/03/23 06:28:02;;;;;;;5.63;1.63;;;19.50;65.90;;;;;;5040625;27;95652;-68
2022/03/23 06:30:34;;;;;;;5.65;1.73;;;19.60;65.40;;;;;;5033688;27;97182;-71
2022/03/23 06:33:04;;;;;;;7.22;2.33;;;19.50;66.00;;;;;;5050852;27;96434;-71
2022/03/23 06:35:36;;;;;;;8.32;2.20;;;19.50;64.40;;;;;;5050322;27;95467;-68
2022/03/23 06:38:06;;;;;;;4.78;1.70;;;19.40;65.10;;;;;;5054965;27;95970;-64
2022/03/23 06:40:37;;;;;;;;;;;19.40;66.60;;;;;;5055399;27;96401;-71
2022/03/23 06:43:09;;;;;;;8.75;1.88;;;19.40;66.50;;;;;;5053152;27;95582;-65
2022/03/23 06:45:40;;;;;;;10.93;1.70;;;19.50;61.80;;;;;;5044845;27;95496;-59
2022/03/23 06:48:11;;;;;;;7.47;2.38;;;19.50;65.90;;;;;;5054149;27;97645;-66
2022/03/23 06:50:42;;;;;;;11.93;2.15;;;19.40;66.40;;;;;;5052392;27;95820;-65
2022/03/23 06:53:13;;;;;;;7.90;1.63;;;19.30;66.40;;;;;;5040278;27;96319;-68
2022/03/23 06:55:44;;;;;;;8.07;1.80;;;19.20;67.60;;;;;;5054089;27;95886;-64
2022/03/23 06:58:15;;;;;;;8.95;2.17;;;19.10;67.60;;;;;;5054963;27;95957;-65
2022/03/23 07:00:47;;;;;;;8.73;2.10;;;19.00;66.90;;;;;;5049334;27;96111;-57
2022/03/23 07:03:18;;;;;;;8.45;2.00;;;19.20;69.00;;;;;;5054928;27;97890;-65
2022/03/23 07:05:50;;;;;;;8.25;2.45;;;19.20;68.80;;;;;;5053277;27;95322;-65
2022/03/23 07:11:10;;;;;;;7.82;1.90;;;19.20;66.90;;;;;;5054887;27;95747;-65
2022/03/23 07:13:41;;;;;;;12.82;2.47;;;19.20;68.80;;;;;;5042449;27;97366;-63
2022/03/23 07:16:12;;;;;;;17.08;2.53;;;19.00;67.70;;;;;;5044468;27;95905;-65
2022/03/23 07:18:43;;;;;;;8.73;2.20;;;18.90;70.10;;;;;;5039627;27;95924;-65
2022/03/23 07:21:13;;;;;;;6.72;2.03;;;18.90;70.60;;;;;;5050677;27;96122;-65
2022/03/23 07:23:43;;;;;;;12.18;2.30;;;18.90;69.30;;;;;;5051311;27;95970;-65
2022/03/23 07:26:19;;;;;;;13.00;2.08;;;18.80;70.40;;;;;;5051556;27;96231;-64
2022/03/23 07:28:51;;;;;;;11.55;3.03;;;18.80;71.40;;;;;;5050219;27;95852;-65
2022/03/23 07:31:21;;;;;;;17.67;2.50;;;18.70;70.80;;;;;;5042171;27;95861;-65
2022/03/23 07:33:51;;;;;;;11.48;2.65;;;18.50;68.70;;;;;;5048713;27;96012;-64
2022/03/23 07:36:22;;;;;;;13.52;2.78;;;18.60;68.40;;;;;;5051727;27;95748;-66
2022/03/23 07:38:53;;;;;;;;;;;18.60;69.30;;;;;;5052117;27;95967;-67
2022/03/23 07:41:25;;;;;;;;;;;18.50;68.40;;;;;;5053853;27;95909;-68
2022/03/23 07:43:56;;;;;;;22.90;3.45;;;18.50;67.60;;;;;;5036608;27;95848;-67
2022/03/23 07:46:27;;;;;;;13.18;2.60;;;18.40;68.70;;;;;;5042117;27;95888;-68
2022/03/23 07:48:58;;;;;;;12.00;4.00;;;18.30;69.60;;;;;;5052413;27;95729;-66
2022/03/23 07:51:29;;;;;;;16.15;4.13;;;18.40;70.50;;;;;;5055636;27;95780;-66
2022/03/23 07:54:00;;;;;;;11.32;3.22;;;18.40;70.10;;;;;;5055944;27;96745;-67
2022/03/23 07:56:32;;;;;;;14.80;4.00;;;18.20;66.50;;;;;;5051600;27;98234;-66
2022/03/23 07:59:03;;;;;;;12.88;3.70;;;18.20;70.00;;;;;;5053834;27;95300;-66
2022/03/23 08:01:34;;;;;;;11.82;3.35;;;18.10;70.50;;;;;;5049173;27;96640;-66
2022/03/23 08:04:06;;;;;;;11.63;3.13;;;18.00;71.20;;;;;;5055633;27;96506;-66
2022/03/23 08:06:37;;;;;;;;;;;17.90;71.10;;;;;;5053752;27;96081;-66
2022/03/23 08:09:09;;;;;;;11.43;2.90;;;17.80;71.60;;;;;;5046585;27;95750;-66
2022/03/23 08:11:44;;;;;;;12.02;3.53;;;17.80;72.20;;;;;;5055618;27;95879;-66
2022/03/23 08:14:15;;;;;;;12.35;3.03;;;17.80;70.80;;;;;;5015063;27;98604;-66
2022/03/23 08:16:47;;;;;;;17.08;3.55;;;17.70;70.10;;;;;;5042245;27;95421;-67
2022/03/23 08:19:17;;;;;;;10.85;2.78;;;17.50;72.10;;;;;;5046160;27;96313;-67
2022/03/23 08:21:47;;;;;;;11.85;3.03;;;17.40;72.20;;;;;;5056859;27;96087;-66
2022/03/23 08:24:17;;;;;;;9.32;3.17;;;17.30;72.80;;;;;;5037948;27;96882;-66
2022/03/23 08:26:48;;;;;;;12.73;3.60;;;17.30;72.40;;;;;;5055116;27;96235;-65
2022/03/23 08:29:19;;;;;;;11.55;2.92;;;17.40;71.30;;;;;;5054109;27;95517;-66
2022/03/23 08:31:50;;;;;;;14.98;3.35;;;17.30;71.50;;;;;;5046918;27;95781;-66
2022/03/23 08:34:20;;;;;;;9.73;2.95;;;17.20;71.40;;;;;;5051197;27;96386;-65
2022/03/23 08:36:52;;;;;;;17.27;2.70;;;17.10;72.00;;;;;;5053890;27;98778;-64
2022/03/23 08:39:25;;;;;;;14.10;2.88;;;17.00;71.70;;;;;;5053631;27;96134;-65
2022/03/23 08:41:56;;;;;;;11.20;2.55;;;16.90;71.60;;;;;;5056043;27;96043;-64
2022/03/23 08:44:28;;;;;;;12.23;3.30;;;16.90;73.00;;;;;;5054214;27;100186;-64
2022/03/23 08:47:00;;;;;;;7.40;2.20;;;16.60;73.50;;;;;;5043235;27;95693;-63
2022/03/23 08:49:31;;;;;;;5.28;1.70;;;16.50;74.00;;;;;;5055916;27;95879;-60
2022/03/23 08:52:02;;;;;;;;;;;16.20;74.50;;;;;;5054548;27;96334;-66
2022/03/23 08:54:33;;;;;;;12.05;2.70;;;16.20;73.40;;;;;;5053851;27;96225;-66
2022/03/23 08:57:04;;;;;;;12.30;2.20;;;16.00;74.30;;;;;;5042585;27;95843;-65
2022/03/23 08:59:36;;;;;;;14.38;2.25;;;16.00;75.10;;;;;;5049485;27;96693;-66
2022/03/23 09:02:09;;;;;;;14.03;2.67;;;15.90;74.90;;;;;;5044144;27;96168;-64
2022/03/23 09:04:44;;;;;;;13.38;2.55;;;15.80;75.80;;;;;;5051431;27;96626;-66
2022/03/23 09:07:17;;;;;;;10.68;2.55;;;15.70;75.90;;;;;;5049035;27;96410;-65
2022/03/23 09:09:48;;;;;;;9.40;2.55;;;15.70;76.10;;;;;;5053462;27;96058;-65
2022/03/23 09:12:20;;;;;;;10.55;2.60;;;15.70;76.80;;;;;;5052874;27;95442;-66
2022/03/23 09:14:52;;;;;;;11.15;2.92;;;15.70;77.00;;;;;;5053813;27;96560;-66
2022/03/23 09:17:29;;;;;;;6.53;2.15;;;15.60;77.10;;;;;;5044784;27;96308;-66
2022/03/23 09:20:01;;;;;;;8.93;1.73;;;15.50;77.20;;;;;;5053020;27;96201;-64
2022/03/23 09:22:34;;;;;;;8.65;2.33;;;15.30;77.70;;;;;;5059460;27;95782;-64
2022/03/23 09:25:08;;;;;;;12.70;2.38;;;15.30;79.10;;;;;;5058740;27;96419;-57
2022/03/23 09:27:43;;;;;;;10.43;2.60;;;16.20;75.50;;;;;;5056304;27;95791;-65
2022/03/23 09:30:15;;;;;;;8.20;3.33;;;16.90;79.50;;;;;;5038122;27;97108;-64
2022/03/23 09:32:46;;;;;;;8.20;3.20;;;17.50;78.60;;;;;;5057408;27;95992;-64
2022/03/23 09:35:17;;;;;;;10.45;3.63;;;18.00;77.60;;;;;;5051553;27;96484;-61
2022/03/23 09:37:48;;;;;;;7.20;3.38;;;18.30;76.80;;;;;;5056199;27;95922;-64
2022/03/23 09:40:24;;;;;;;9.02;4.40;;;18.60;75.70;;;;;;5054929;27;95872;-63
2022/03/23 09:43:08;;;;;;;8.23;3.53;;;18.80;75.50;;;;;;5057567;27;95814;-67
2022/03/23 09:45:46;;;;;;;12.15;4.15;;;18.90;74.80;;;;;;5037177;27;96519;-65
2022/03/23 09:48:26;;;;;;;15.07;3.55;;;19.00;74.80;;;;;;5055488;27;96436;-64
2022/03/23 09:50:57;;;;;;;7.90;3.40;;;19.10;74.80;;;;;;5055588;27;96068;-63
2022/03/23 09:53:28;;;;;;;9.68;3.47;;;19.20;74.70;;;;;;5053104;27;95627;-57
2022/03/23 09:55:59;;;;;;;6.72;3.35;;;19.30;74.00;;;;;;5047386;27;95858;-52
2022/03/23 09:58:30;;;;;;;;;;;19.30;73.60;;;;;;5052650;27;95590;-60
2022/03/23 10:01:04;;;;;;;10.80;4.03;;;19.40;73.40;;;;;;5047826;27;96323;-59
2022/03/23 10:04:11;;;;;;;7.30;3.50;;;19.40;73.20;;;;;;5052604;27;96937;-56
2022/03/23 10:07:19;;;;;;;8.98;3.03;;;19.40;73.00;;;;;;5052833;27;96231;-58
2022/03/23 10:10:08;;;;;;;8.32;3.53;;;19.50;72.90;;;;;;5051273;27;95584;-62
2022/03/23 10:13:17;;;;;;;7.93;3.67;;;19.50;72.60;;;;;;5051270;27;95815;-54
2022/03/23 10:16:28;;;;;;;6.82;2.83;;;19.60;72.50;;;;;;5044346;27;95679;-58
2022/03/23 10:19:00;;;;;;;7.50;3.83;;;19.60;72.40;;;;;;5019369;27;100326;-58
2022/03/23 10:21:37;;;;;;;6.25;2.63;;;19.60;72.50;;;;;;5051080;27;97166;-57
2022/03/23 10:24:08;;;;;;;5.47;2.58;;;19.60;72.20;;;;;;5039097;27;97920;-57
2022/03/23 10:26:42;;;;;;;;;;;19.70;72.30;;;;;;5050874;27;95729;-59
2022/03/23 10:29:22;;;;;;;7.55;3.13;;;19.60;72.30;;;;;;5045466;27;96398;-58
2022/03/23 10:32:03;;;;;;;6.78;2.80;;;19.70;71.90;;;;;;5041473;27;98645;-56
2022/03/23 10:34:47;;;;;;;7.38;2.72;;;19.70;72.50;;;;;;5051667;27;95861;-58
2022/03/23 10:37:31;;;;;;;5.43;2.67;;;19.90;72.40;;;;;;5054781;27;95965;-58
2022/03/23 10:40:09;;;;;;;4.20;3.22;;;19.80;72.40;;;;;;5054035;27;96081;-58
2022/03/23 10:42:46;;;;;;;5.25;2.65;;;19.80;72.70;;;;;;5025209;27;95914;-58
2022/03/23 10:45:20;;;;;;;8.25;2.80;;;19.80;73.00;;;;;;5050268;27;95865;-56
2022/03/23 10:47:51;;;;;;;6.45;2.80;;;19.80;73.00;;;;;;5053702;27;96518;-56
2022/03/23 10:50:23;;;;;;;6.33;2.23;;;19.70;73.00;;;;;;5054113;27;96394;-57
2022/03/23 10:53:03;;;;;;;6.25;2.83;;;19.70;73.10;;;;;;5054608;27;95958;-56
2022/03/23 10:55:48;;;;;;;5.25;2.42;;;19.70;73.20;;;;;;5054505;27;95894;-58
2022/03/23 10:58:25;;;;;;;9.48;2.53;;;19.70;73.20;;;;;;5054896;27;95684;-57
2022/03/23 11:01:07;;;;;;;7.70;2.55;;;19.70;73.20;;;;;;5044547;27;98729;-57
2022/03/23 11:03:43;;;;;;;6.63;3.08;;;19.70;73.40;;;;;;5049460;27;95705;-60
2022/03/23 11:06:27;;;;;;;4.05;2.25;;;19.70;73.50;;;;;;5038190;27;97893;-57
2022/03/23 11:15:46;;;;;;;3.15;1.88;;;19.70;73.20;;;;;;5051152;27;95789;-56
2022/03/23 11:18:09;;;;;;;4.20;2.20;;;19.60;73.60;;;;;;5044853;27;96009;-57
2022/03/23 11:20:45;;;;;;;7.88;3.33;;;19.60;73.80;;;;;;5039780;27;99928;-59
2022/03/23 11:23:39;;;;;;;8.20;2.03;;;19.60;73.80;;;;;;5050159;27;96075;-58
2022/03/23 11:26:13;;;;;;;6.40;2.10;;;19.60;74.50;;;;;;5051447;27;95862;-59
2022/03/23 11:28:46;;;;;;;7.13;2.10;;;19.60;74.50;;;;;;5049699;27;95671;-59
2022/03/23 11:31:17;;;;;;;7.30;2.05;;;19.60;73.90;;;;;;5042366;27;96419;-58
2022/03/23 11:33:51;;;;;;;7.55;2.47;;;19.50;73.50;;;;;;5041369;27;96378;-60
2022/03/23 11:36:28;;;;;;;4.68;2.28;;;19.50;73.30;;;;;;5048602;27;95762;-60
2022/03/23 11:39:01;;;;;;;6.88;2.38;;;19.50;73.10;;;;;;5048279;27;96091;-60
2022/03/23 11:41:36;;;;;;;6.38;1.80;;;19.40;72.90;;;;;;5048870;27;95428;-60
2022/03/23 11:44:09;;;;;;;4.85;1.90;;;19.40;72.80;;;;;;5042297;27;95882;-60
2022/03/23 11:46:42;;;;;;;3.30;1.77;;;19.40;72.60;;;;;;5039467;27;95733;-62
2022/03/23 11:49:42;;;;;;;6.70;1.85;;;19.40;72.70;;;;;;5044316;27;97195;-59
2022/03/23 11:52:16;;;;;;;5.00;2.10;;;19.30;72.50;;;;;;5042739;27;96406;-60
2022/03/23 11:57:55;;;;;;;1.58;1.40;;;19.30;72.30;;;;;;5047992;27;95855;-60
2022/03/23 12:00:31;;;;;;;3.35;1.50;;;19.30;72.30;;;;;;5043364;27;95772;-60
2022/03/23 12:03:03;;;;;;;6.07;1.92;;;19.30;72.10;;;;;;5049608;27;95735;-60
2022/03/23 12:05:48;;;;;;;4.32;1.65;;;19.20;72.10;;;;;;5045605;27;95898;-62
2022/03/23 12:08:50;;;;;;;10.07;2.33;;;19.20;72.40;;;;;;5049575;27;96543;-57
2022/03/23 12:11:38;;;;;;;3.05;1.52;;;19.30;72.70;;;;;;5056539;27;96029;-59
2022/03/23 12:14:19;;;;;;;7.13;1.77;;;19.50;72.60;;;;;;5040206;27;95710;-63
2022/03/23 12:16:53;;;;;;;6.10;1.60;;;19.50;64.30;;;;;;5025725;27;98431;-62
2022/03/23 12:20:10;;;;;;;7.03;2.10;;;18.20;66.40;;;;;;5037836;27;95771;-61
2022/03/23 12:23:17;;;;;;;5.47;1.67;;;17.30;69.60;;;;;;5052097;27;95909;-62
2022/03/23 12:25:50;;;;;;;2.85;1.42;;;18.10;76.00;;;;;;5019913;27;95790;-61
2022/03/23 12:28:44;;;;;;;5.82;2.15;;;18.90;73.30;;;;;;5056308;27;96692;-63
2022/03/23 12:31:17;;;;;;;5.50;1.75;;;19.40;70.20;;;;;;5054131;27;95845;-61
2022/03/23 12:34:03;;;;;;;6.55;1.90;;;19.70;70.10;;;;;;5047649;27;95769;-61
2022/03/23 12:39:44;;;;;;;3.33;1.60;;;20.00;68.00;;;;;;5060921;27;96294;-60
2022/03/23 12:42:18;;;;;;;4.18;2.08;;;20.20;68.00;;;;;;5059958;27;95812;-61
2022/03/23 12:44:58;;;;;;;4.85;1.98;;;20.20;67.00;;;;;;5060862;27;95959;-61
2022/03/23 12:47:32;;;;;;;;;;;20.30;66.20;;;;;;5056435;27;98589;-61
2022/03/23 12:58:42;;;;;;;5.60;3.08;;;20.70;66.50;;;;;;5054741;27;96605;-62
2022/03/23 13:01:16;;;;;;;3.63;2.58;;;20.90;65.90;;;;;;5053311;27;97363;-61
2022/03/23 13:03:51;;;;;;;3.58;1.90;;;20.90;65.90;;;;;;5063354;27;95640;-60
2022/03/23 13:06:34;;;;;;;3.33;1.83;;;21.00;65.50;;;;;;5059857;27;95805;-61
2022/03/23 13:09:10;;;;;;;5.40;2.20;;;21.10;65.40;;;;;;5050566;27;95833;-60
2022/03/23 13:11:44;;;;;;;3.25;2.20;;;21.10;65.30;;;;;;5059733;27;96000;-61
2022/03/23 13:14:16;;;;;;;2.08;1.40;;;21.20;65.20;;;;;;5060128;27;95743;-62
2022/03/23 13:16:48;;;;;;;5.43;1.95;;;21.20;65.10;;;;;;5049022;27;96096;-60
2022/03/23 13:19:19;;;;;;;5.90;1.83;;;21.30;64.80;;;;;;5051266;27;95932;-61
2022/03/23 13:21:50;;;;;;;4.05;2.17;;;21.30;63.40;;;;;;5059700;27;95918;-62
2022/03/23 13:24:27;;;;;;;4.90;1.70;;;21.30;64.20;;;;;;5056289;27;95992;-61
2022/03/23 13:26:58;;;;;;;4.38;3.00;;;21.30;63.30;;;;;;5029454;27;96474;-64
2022/03/23 13:29:32;;;;;;;6.60;3.20;;;21.00;61.70;;;;;;5058146;27;95312;-65
2022/03/23 13:32:07;;;;;;;6.03;3.05;;;20.60;63.50;;;;;;5055404;27;96607;-62
2022/03/23 13:34:42;;;;;;;4.30;2.30;;;20.40;64.40;;;;;;5054092;27;95840;-60
2022/03/23 13:37:12;;;;;;;6.22;2.35;;;20.50;67.00;;;;;;5055684;27;96508;-60
2022/03/23 13:39:49;;;;;;;5.32;2.35;;;20.60;67.20;;;;;;5055390;27;95852;-61
2022/03/23 13:45:13;;;;;;;2.67;1.73;;;20.60;67.80;;;;;;5044325;27;95856;-63
2022/03/23 13:47:45;;;;;;;4.65;2.70;;;20.60;68.10;;;;;;5050539;27;95753;-63
2022/03/23 13:50:16;;;;;;;;;;;20.60;68.10;;;;;;5038131;27;96224;-63
2022/03/23 13:52:49;;;;;;;4.53;2.65;;;20.60;68.00;;;;;;5053725;27;96648;-63
2022/03/23 13:55:20;;;;;;;5.00;2.22;;;20.50;68.10;;;;;;5049517;27;96565;-64
2022/03/23 13:57:51;;;;;;;4.05;1.90;;;20.50;68.20;;;;;;5054821;27;95760;-63
2022/03/23 14:00:27;;;;;;;5.70;2.45;;;20.40;68.30;;;;;;5031606;27;96882;-60
2022/03/23 14:02:58;;;;;;;3.90;2.25;;;20.40;68.50;;;;;;5025704;27;97860;-61